createdAt,value
2022-12-27T00:00:59.320Z,98720.56
2022-12-27T00:06:26.253Z,98696.47
2022-12-27T00:11:56.320Z,98713.63
2022-12-27T00:17:26.312Z,98724.63
2022-12-27T00:22:51.275Z,98732.91
2022-12-27T00:28:15.287Z,98749.94
2022-12-27T00:33:51.310Z,98730.53
2022-12-27T00:39:16.282Z,98741.41
2022-12-27T00:44:40.298Z,98751.03
2022-12-27T00:50:08.300Z,98768.91
2022-12-27T00:55:27.278Z,98771.22
2022-12-27T01:00:52.363Z,98773.53
2022-12-27T01:06:23.343Z,98802.66
2022-12-27T01:11:48.267Z,98812.91
2022-12-27T01:17:13.308Z,98823.28
2022-12-27T01:22:40.292Z,98829.44
2022-12-27T01:28:12.332Z,98842.56
2022-12-27T01:33:37.335Z,98837.63
2022-12-27T01:39:05.359Z,98844.44
2022-12-27T01:44:58.291Z,98855.84
2022-12-27T01:50:28.315Z,98848.44
2022-12-27T01:55:59.341Z,98858.03
2022-12-27T02:01:27.432Z,98866.56
2022-12-27T02:06:52.365Z,98867.78
2022-12-27T02:12:23.384Z,98883.13
2022-12-27T02:17:48.331Z,98881.72
2022-12-27T02:24:01.568Z,98884.72
2022-12-27T02:30:08.333Z,98901.34
2022-12-27T02:35:38.356Z,98892.78
2022-12-27T02:41:16.353Z,98903.56
2022-12-27T02:46:56.357Z,98910.38
2022-12-27T02:52:45.399Z,98909.53
2022-12-27T02:58:26.366Z,98912.34
2022-12-27T03:04:18.371Z,98901.22
2022-12-27T03:10:24.356Z,98916.44
2022-12-27T03:16:04.408Z,98928.00
2022-12-27T03:21:48.378Z,98929.63
2022-12-27T03:27:15.332Z,98939.16
2022-12-27T03:32:55.385Z,98919.66
2022-12-27T03:38:25.355Z,98921.34
2022-12-27T03:43:51.396Z,98920.59
2022-12-27T03:49:27.371Z,98935.72
2022-12-27T03:55:00.374Z,98931.59
2022-12-27T04:00:27.673Z,98933.38
2022-12-27T04:05:52.394Z,98939.22
2022-12-27T04:11:32.359Z,98963.69
2022-12-27T04:17:09.385Z,98966.34
2022-12-27T04:22:46.380Z,98968.44
2022-12-27T04:28:26.383Z,98953.22
2022-12-27T04:34:04.396Z,98962.13
2022-12-27T04:39:29.438Z,98966.56
2022-12-27T04:45:14.888Z,98969.81
2022-12-27T04:50:54.385Z,98964.50
2022-12-27T04:56:21.457Z,98977.34
2022-12-27T05:02:01.594Z,98981.81
2022-12-27T05:07:43.372Z,98985.53
2022-12-27T05:13:20.400Z,98998.13
2022-12-27T05:18:47.433Z,99025.34
2022-12-27T05:24:25.423Z,99022.63
2022-12-27T05:29:49.423Z,99039.38
2022-12-27T05:35:18.437Z,99029.28
2022-12-27T05:40:43.457Z,99020.84
2022-12-27T05:46:13.444Z,99013.94
2022-12-27T05:51:40.408Z,99011.66
2022-12-27T05:57:06.416Z,99007.81
2022-12-27T06:02:31.570Z,99017.16
2022-12-27T06:07:59.445Z,99040.50
2022-12-27T06:13:24.451Z,99038.09
2022-12-27T06:18:51.412Z,99043.78
2022-12-27T06:24:18.396Z,99034.69
2022-12-27T06:29:49.435Z,99047.59
2022-12-27T06:35:17.424Z,99052.06
2022-12-27T06:40:44.418Z,99045.53
2022-12-27T06:46:17.385Z,99048.09
2022-12-27T06:51:41.417Z,99062.56
2022-12-27T06:57:09.492Z,99070.72
2022-12-27T07:02:33.602Z,99083.41
2022-12-27T07:08:00.469Z,99106.75
2022-12-27T07:13:27.485Z,99113.53
2022-12-27T07:18:53.458Z,99121.25
2022-12-27T07:24:18.455Z,99125.44
2022-12-27T07:29:46.468Z,99129.91
2022-12-27T07:35:10.418Z,99135.22
2022-12-27T07:40:35.471Z,99152.09
2022-12-27T07:46:02.474Z,99166.72
2022-12-27T07:51:27.490Z,99171.47
2022-12-27T07:56:51.460Z,99177.28
2022-12-27T08:02:20.480Z,99171.97
2022-12-27T08:07:45.469Z,99181.72
2022-12-27T08:13:10.514Z,99182.59
2022-12-27T08:18:37.509Z,99178.38
2022-12-27T08:24:02.474Z,99191.06
2022-12-27T08:29:33.466Z,99184.44
2022-12-27T08:35:18.388Z,99180.06
2022-12-27T08:40:45.566Z,99179.91
2022-12-27T08:46:11.511Z,99171.94
2022-12-27T08:51:41.187Z,99172.22
2022-12-27T08:57:06.491Z,99194.50
2022-12-27T09:02:30.571Z,99188.28
2022-12-27T09:07:58.459Z,99199.53
2022-12-27T09:13:22.505Z,99193.31
2022-12-27T09:18:48.608Z,99198.38
2022-12-27T09:24:16.504Z,99204.56
2022-12-27T09:29:48.562Z,99206.16
2022-12-27T09:35:20.491Z,99219.88
2022-12-27T09:40:47.479Z,99226.66
2022-12-27T09:46:13.575Z,99214.47
2022-12-27T09:51:44.506Z,99206.66
2022-12-27T09:57:21.570Z,99214.41
2022-12-27T10:02:46.730Z,99200.41
2022-12-27T10:08:23.511Z,99214.09
2022-12-27T10:13:59.528Z,99200.69
2022-12-27T10:19:41.497Z,99191.34
2022-12-27T10:25:08.500Z,99188.81
2022-12-27T10:30:38.099Z,99197.69
2022-12-27T10:36:03.579Z,99181.06
2022-12-27T10:41:43.844Z,99175.59
2022-12-27T10:47:11.575Z,99176.13
2022-12-27T10:52:39.539Z,99179.75
2022-12-27T10:58:04.506Z,99193.22
2022-12-27T11:03:36.542Z,99186.38
2022-12-27T11:09:03.546Z,99197.72
2022-12-27T11:14:32.534Z,99196.03
2022-12-27T11:20:00.561Z,99205.84
2022-12-27T11:25:30.539Z,99189.75
2022-12-27T11:31:11.653Z,99204.50
2022-12-27T11:36:42.704Z,99192.63
2022-12-27T11:42:11.551Z,99200.31
2022-12-27T11:47:45.602Z,99187.50
2022-12-27T11:53:27.940Z,99180.44
2022-12-27T11:59:11.561Z,99156.06
2022-12-27T12:05:09.596Z,99168.25
2022-12-27T12:10:47.556Z,99176.16
2022-12-27T12:16:27.577Z,99169.66
2022-12-27T12:22:07.575Z,99174.03
2022-12-27T12:27:57.659Z,99179.38
2022-12-27T12:33:46.554Z,99179.59
2022-12-27T12:39:18.580Z,99188.34
2022-12-27T12:45:10.605Z,99192.38
2022-12-27T12:50:49.634Z,99205.13
2022-12-27T12:56:32.618Z,99191.94
2022-12-27T13:02:15.779Z,99194.28
2022-12-27T13:07:55.650Z,99202.38
2022-12-27T13:13:29.694Z,99203.28
2022-12-27T13:19:09.568Z,99205.53
2022-12-27T13:24:44.596Z,99209.31
2022-12-27T13:30:23.636Z,99196.81
2022-12-27T13:36:08.639Z,99196.25
2022-12-27T13:41:43.571Z,99191.75
2022-12-27T13:47:48.635Z,99202.19
2022-12-27T13:53:35.635Z,99199.09
2022-12-27T13:59:30.636Z,99204.66
2022-12-27T14:05:32.587Z,99207.97
2022-12-27T14:11:01.696Z,99204.66
2022-12-27T14:16:59.393Z,99228.75
2022-12-27T14:22:54.343Z,99224.50
2022-12-27T14:28:59.726Z,99202.31
2022-12-27T14:34:59.821Z,99211.03
2022-12-27T14:40:59.617Z,99210.94
2022-12-27T14:46:53.635Z,99206.13
2022-12-27T14:52:55.612Z,99216.19
2022-12-27T14:58:29.614Z,99199.63
2022-12-27T15:04:13.641Z,99204.94
2022-12-27T15:09:47.639Z,99195.78
2022-12-27T15:15:25.625Z,99190.31
2022-12-27T15:21:07.666Z,99190.16
2022-12-27T15:26:44.652Z,99192.28
2022-12-27T15:32:28.614Z,99196.31
2022-12-27T15:38:15.682Z,99200.34
2022-12-27T15:44:11.644Z,99180.66
2022-12-27T15:50:02.120Z,99194.91
2022-12-27T15:55:41.679Z,99191.66
2022-12-27T16:01:38.813Z,99197.00
2022-12-27T16:07:08.703Z,99195.09
2022-12-27T16:12:48.108Z,99198.88
2022-12-27T16:18:12.774Z,99203.56
2022-12-27T16:23:41.751Z,99205.47
2022-12-27T16:29:18.660Z,99202.72
2022-12-27T16:34:43.652Z,99196.06
2022-12-27T16:40:22.680Z,99194.09
2022-12-27T16:46:01.684Z,99193.22
2022-12-27T16:51:35.710Z,99190.84
2022-12-27T16:57:00.656Z,99187.63
2022-12-27T17:02:45.734Z,99196.94
2022-12-27T17:08:24.738Z,99205.81
2022-12-27T17:13:59.702Z,99203.16
2022-12-27T17:19:30.671Z,99216.06
2022-12-27T17:24:55.700Z,99211.69
2022-12-27T17:30:28.712Z,99207.34
2022-12-27T17:36:08.711Z,99214.47
2022-12-27T17:41:55.674Z,99218.53
2022-12-27T17:47:32.693Z,99221.66
2022-12-27T17:53:37.687Z,99207.63
2022-12-27T17:59:01.720Z,99204.25
2022-12-27T18:04:31.728Z,99204.66
2022-12-27T18:10:02.735Z,99208.16
2022-12-27T18:15:30.693Z,99204.66
2022-12-27T18:20:56.711Z,99186.19
2022-12-27T18:26:25.708Z,99199.31
2022-12-27T18:32:03.748Z,99196.25
2022-12-27T18:37:31.726Z,99205.91
2022-12-27T18:42:59.720Z,99197.16
2022-12-27T18:48:27.751Z,99203.44
2022-12-27T18:53:59.719Z,99198.47
2022-12-27T18:59:34.711Z,99207.75
2022-12-27T19:05:00.747Z,99196.16
2022-12-27T19:10:27.707Z,99205.09
2022-12-27T19:15:51.775Z,99198.44
2022-12-27T19:21:18.741Z,99191.50
2022-12-27T19:26:43.747Z,99198.81
2022-12-27T19:32:20.712Z,99185.09
2022-12-27T19:37:45.715Z,99169.22
2022-12-27T19:43:09.737Z,99170.84
2022-12-27T19:48:37.752Z,99175.16
2022-12-27T19:54:05.762Z,99167.84
2022-12-27T19:59:32.749Z,99166.13
2022-12-27T20:04:59.730Z,99156.78
2022-12-27T20:10:24.770Z,99143.88
2022-12-27T20:15:48.761Z,99146.69
2022-12-27T20:21:20.762Z,99138.88
2022-12-27T20:26:45.762Z,99131.63
2022-12-27T20:32:16.789Z,99132.28
2022-12-27T20:37:44.789Z,99122.88
2022-12-27T20:43:09.766Z,99132.84
2022-12-27T20:48:34.781Z,99132.84
2022-12-27T20:54:02.776Z,99139.75
2022-12-27T20:59:27.759Z,99137.78
2022-12-27T21:04:51.768Z,99119.94
2022-12-27T21:10:19.752Z,99109.84
2022-12-27T21:15:44.762Z,99110.03
2022-12-27T21:21:13.797Z,99114.00
2022-12-27T21:26:42.785Z,99112.28
2022-12-27T21:32:13.806Z,99115.88
2022-12-27T21:37:38.806Z,99125.75
2022-12-27T21:43:05.780Z,99114.94
2022-12-27T21:48:31.787Z,99116.56
2022-12-27T21:53:56.848Z,99106.97
2022-12-27T21:59:24.771Z,99108.34
2022-12-27T22:04:48.796Z,99099.50
2022-12-27T22:10:14.788Z,99084.53
2022-12-27T22:15:41.858Z,99078.47
2022-12-27T22:21:08.802Z,99091.81
2022-12-27T22:26:35.819Z,99079.41
2022-12-27T22:32:03.808Z,99073.97
2022-12-27T22:37:27.815Z,99059.66
2022-12-27T22:42:52.807Z,99056.81
2022-12-27T22:48:19.801Z,99055.16
2022-12-27T22:53:44.810Z,99040.53
2022-12-27T22:59:09.823Z,99049.94
2022-12-27T23:04:37.874Z,99052.53
2022-12-27T23:10:01.833Z,99040.28
2022-12-27T23:15:26.881Z,99033.16
2022-12-27T23:21:21.251Z,99033.34
2022-12-27T23:26:38.807Z,99029.53
2022-12-27T23:32:09.803Z,99023.72
2022-12-27T23:37:37.853Z,99019.81
2022-12-27T23:43:25.794Z,99006.13
2022-12-27T23:48:46.834Z,98999.31
2022-12-27T23:54:14.830Z,98993.56
2022-12-27T23:59:39.841Z,98985.31
